Time;durP1;ratioP1;P1;durP2;ratioP2;P2;SDS_P1;SDS_P2;PMS_P1;PMS_P2;Temp;Humidity;BMP_temperature;BMP_pressure;BME280_temperature;BME280_humidity;BME280_pressure;Samples;Min_cycle;Max_cycle;Signal;HPM_P1;HPM_P2
2023/01/11 00:00:05;;;;;;;;;57.25;41.25;;;;;3.68;100.00;98837.59;4770049;29;102273;-72
2023/01/11 00:02:33;;;;;;;;;52.50;40.75;;;;;3.76;100.00;98861.75;4773542;29;102582;-71
2023/01/11 00:05:00;;;;;;;;;46.00;36.75;;;;;3.79;100.00;98863.25;4779208;29;103161;-71
2023/01/11 00:07:27;;;;;;;;;40.75;32.00;;;;;3.76;99.97;98853.72;4774433;29;102375;-71
2023/01/11 00:09:54;;;;;;;;;37.50;29.00;;;;;3.83;100.00;98861.97;4777991;29;104461;-72
2023/01/11 00:12:20;;;;;;;;;23.00;19.00;;;;;3.87;99.80;98858.84;4777671;29;102485;-71
2023/01/11 00:14:47;;;;;;;;;16.00;12.25;;;;;3.91;100.00;98867.41;4768666;29;104040;-71
2023/01/11 00:17:14;;;;;;;;;18.50;13.50;;;;;3.94;99.65;98853.72;4785112;29;102593;-72
2023/01/11 00:19:41;;;;;;;;;23.25;18.50;;;;;3.91;99.22;98854.88;4770118;29;102266;-71
2023/01/11 00:22:08;;;;;;;;;32.25;23.75;;;;;3.82;99.50;98855.81;4792903;29;102026;-71
2023/01/11 00:24:35;;;;;;;;;26.25;23.25;;;;;3.79;99.25;98847.22;4767354;29;104259;-71
2023/01/11 00:27:02;;;;;;;;;30.75;26.25;;;;;3.81;99.78;98847.91;4781378;29;101894;-72
2023/01/11 00:29:29;;;;;;;;;30.50;26.75;;;;;3.81;100.00;98858.63;4765227;29;104063;-72
2023/01/11 00:31:56;;;;;;;;;23.75;21.50;;;;;3.81;99.79;98862.13;4776071;29;102258;-72
2023/01/11 00:34:23;;;;;;;;;36.50;27.75;;;;;3.74;99.20;98852.22;4770743;29;108880;-73
2023/01/11 00:36:50;;;;;;;;;37.75;28.50;;;;;3.68;99.64;98852.81;4784225;29;102585;-72
2023/01/11 00:39:17;;;;;;;;;37.25;34.75;;;;;3.63;99.90;98861.28;4776590;29;102869;-72
2023/01/11 00:50:04;;;;;;;;;38.75;30.00;;;;;3.48;99.94;98860.94;4770209;29;102456;-72
2023/01/11 00:52:31;;;;;;;;;47.50;40.75;;;;;3.42;100.00;98868.75;4776675;29;102516;-72
2023/01/11 00:54:58;;;;;;;;;38.75;34.50;;;;;3.39;100.00;98866.34;4767458;29;103917;-72
2023/01/11 00:57:25;;;;;;;;;50.75;38.50;;;;;3.32;100.00;98875.97;4782627;29;102357;-72
2023/01/11 00:59:52;;;;;;;;;44.25;37.25;;;;;3.36;100.00;98882.69;4778413;29;102384;-71
2023/01/11 01:02:18;;;;;;;;;39.00;34.00;;;;;3.34;100.00;98873.97;4774742;29;102321;-72
2023/01/11 01:04:45;;;;;;;;;37.50;34.25;;;;;3.14;100.00;98842.03;4778029;29;105264;-71
2023/01/11 01:07:12;;;;;;;;;40.50;29.50;;;;;3.37;100.00;98871.84;4780672;29;103041;-71
2023/01/11 01:09:41;;;;;;;;;34.00;28.00;;;;;3.22;100.00;98857.31;4783869;29;102967;-71
2023/01/11 01:12:08;;;;;;;;;32.25;23.75;;;;;3.33;100.00;98881.13;4773268;29;102314;-71
2023/01/11 01:14:35;;;;;;;;;49.25;39.00;;;;;3.25;100.00;98875.69;4785745;29;103983;-71
2023/01/11 01:17:06;;;;;;;;;40.25;33.25;;;;;3.28;100.00;98877.25;4777797;29;102433;-71
2023/01/11 01:19:37;;;;;;;;;37.50;29.25;;;;;3.31;100.00;98885.81;4773656;29;102362;-71
2023/01/11 01:22:04;;;;;;;;;29.00;26.00;;;;;3.34;100.00;98880.16;4777665;29;102462;-71
2023/01/11 01:24:32;;;;;;;;;20.00;15.00;;;;;3.42;100.00;98869.56;4779524;29;104019;-71
2023/01/11 01:26:59;;;;;;;;;15.75;14.50;;;;;3.46;100.00;98870.13;4784592;29;102474;-71
2023/01/11 01:29:26;;;;;;;;;14.75;12.00;;;;;3.43;100.00;98855.19;4774882;29;102451;-72
2023/01/11 01:31:53;;;;;;;;;10.00;6.00;;;;;3.56;99.90;98876.22;4766384;29;102487;-71
2023/01/11 01:34:20;;;;;;;;;7.50;5.75;;;;;3.55;99.77;98883.44;4758918;29;104143;-71
2023/01/11 01:36:46;;;;;;;;;9.50;7.75;;;;;3.53;99.30;98872.03;4757000;29;102268;-71
2023/01/11 01:39:14;;;;;;;;;12.00;11.00;;;;;3.34;98.86;98833.88;4754538;29;102555;-71
2023/01/11 01:41:41;;;;;;;;;12.00;10.00;;;;;3.54;99.46;98868.38;4762317;29;102206;-71
2023/01/11 01:44:45;;;;;;;;;9.25;6.50;;;;;3.55;98.73;98869.22;4753807;29;104275;-71
2023/01/11 01:47:13;;;;;;;;;18.25;14.00;;;;;3.54;99.38;98865.69;4765286;29;102492;-71
2023/01/11 01:49:42;;;;;;;;;16.00;13.00;;;;;3.54;99.33;98864.84;4756970;29;102299;-72
2023/01/11 01:52:10;;;;;;;;;14.75;11.00;;;;;3.57;99.52;98862.72;4756907;29;102103;-72
2023/01/11 01:54:43;;;;;;;;;10.25;8.25;;;;;3.59;98.51;98862.56;4755432;29;104003;-72
2023/01/11 01:57:18;;;;;;;;;14.00;11.75;;;;;3.63;98.96;98863.09;4757242;29;102125;-72
2023/01/11 01:59:50;;;;;;;;;9.50;8.00;;;;;3.65;99.68;98861.94;4758970;29;102609;-71
2023/01/11 02:02:23;;;;;;;;;13.25;9.00;;;;;3.66;99.09;98860.97;4755004;29;101991;-72
2023/01/11 02:04:55;;;;;;;;;5.50;5.00;;;;;3.65;98.44;98858.47;4749021;29;104310;-71
2023/01/11 02:07:27;;;;;;;;;7.25;6.50;;;;;3.55;98.12;98854.03;4752882;29;102415;-71
2023/01/11 02:10:09;;;;;;;;;8.75;6.50;;;;;3.60;98.27;98857.06;4736905;29;104074;-71
2023/01/11 02:13:13;;;;;;;;;5.00;3.00;;;;;3.59;98.17;98866.09;4762928;29;102400;-71
2023/01/11 02:16:09;;;;;;;;;14.75;12.75;;;;;3.46;98.52;98857.59;4752108;29;109217;-71
2023/01/11 02:19:00;;;;;;;;;8.50;6.50;;;;;3.43;98.97;98849.00;4750096;29;102020;-71
2023/01/11 02:22:17;;;;;;;;;11.25;9.50;;;;;3.45;99.26;98847.88;4757483;29;102277;-70
2023/01/11 02:25:02;;;;;;;;;7.00;6.00;;;;;3.48;99.62;98842.22;4742383;29;106952;-71
2023/01/11 02:28:18;;;;;;;;;5.75;5.50;;;;;3.47;99.90;98845.88;4751178;29;108551;-71
2023/01/11 02:31:04;;;;;;;;;3.50;3.00;;;;;3.51;98.99;98841.91;4742860;29;102448;-71
2023/01/11 02:33:57;;;;;;;;;5.00;5.00;;;;;3.51;99.28;98835.75;4753238;29;102197;-71
2023/01/11 02:36:43;;;;;;;;;15.50;12.75;;;;;3.39;98.36;98837.78;4761548;29;102515;-72
2023/01/11 02:39:31;;;;;;;;;12.00;11.75;;;;;3.41;98.90;98838.50;4753731;29;108885;-72
2023/01/11 02:45:13;;;;;;;;;8.00;6.25;;;;;3.40;99.11;98839.47;4749556;29;106479;-72
2023/01/11 02:48:02;;;;;;;;;9.00;8.00;;;;;3.42;99.60;98848.16;4761033;29;102037;-72
2023/01/11 02:51:01;;;;;;;;;7.00;5.50;;;;;3.42;99.15;98845.50;4764038;29;109003;-71
2023/01/11 02:53:40;;;;;;;;;7.00;5.00;;;;;3.43;99.35;98841.84;4750233;29;102381;-71
2023/01/11 02:56:12;;;;;;;;;3.00;2.25;;;;;3.44;98.90;98845.34;4750712;29;102437;-71
2023/01/11 02:58:44;;;;;;;;;7.00;6.00;;;;;3.42;99.39;98842.00;4764262;29;102264;-72
2023/01/11 03:01:12;;;;;;;;;5.00;3.50;;;;;3.34;99.16;98833.88;4747923;29;104039;-72
2023/01/11 03:03:39;;;;;;;;;2.00;2.00;;;;;3.41;98.70;98851.00;4755860;29;102072;-72
2023/01/11 03:06:13;;;;;;;;;3.00;3.00;;;;;3.39;98.44;98852.97;4750901;29;102461;-72
2023/01/11 03:09:08;;;;;;;;;3.00;3.00;;;;;3.38;98.99;98852.13;4765588;29;102284;-72
2023/01/11 03:15:27;;;;;;;;;5.00;4.00;;;;;3.39;99.22;98859.16;4762570;29;102435;-72
2023/01/11 03:18:16;;;;;;;;;4.50;3.00;;;;;3.39;99.20;98853.81;4755309;29;102833;-73
2023/01/11 03:20:53;;;;;;;;;6.00;6.00;;;;;3.41;98.50;98856.34;4756694;29;104088;-73
2023/01/11 03:23:32;;;;;;;;;12.00;11.25;;;;;3.36;99.24;98859.47;4760859;29;103937;-72
2023/01/11 03:26:09;;;;;;;;;7.75;7.00;;;;;3.37;99.78;98845.13;4764550;29;103157;-72
2023/01/11 03:28:43;;;;;;;;;6.25;6.00;;;;;3.37;99.50;98853.16;4757108;29;102323;-73
2023/01/11 03:31:22;;;;;;;;;9.50;8.75;;;;;3.38;99.02;98846.78;4760536;29;102085;-72
2023/01/11 03:34:23;;;;;;;;;17.25;11.25;;;;;3.33;98.92;98849.06;4791927;29;103974;-72
2023/01/11 03:37:11;;;;;;;;;16.00;15.00;;;;;3.33;99.18;98843.72;4786029;29;102215;-72
2023/01/11 03:39:46;;;;;;;;;11.25;11.00;;;;;3.36;99.52;98845.28;4767744;29;102422;-72
2023/01/11 03:42:18;;;;;;;;;9.75;9.75;;;;;3.37;99.75;98847.81;4768525;29;102657;-72
2023/01/11 03:44:52;;;;;;;;;17.00;17.00;;;;;3.38;100.00;98838.78;4778411;29;104087;-72
2023/01/11 03:47:24;;;;;;;;;13.00;11.25;;;;;3.41;99.19;98843.84;4766436;29;102253;-72
2023/01/11 03:49:59;;;;;;;;;7.75;6.00;;;;;3.41;99.63;98840.31;4777162;29;102590;-72
2023/01/11 03:52:32;;;;;;;;;11.75;10.00;;;;;3.40;99.64;98839.47;4772923;29;102398;-72
2023/01/11 03:55:03;;;;;;;;;10.50;10.25;;;;;3.41;99.41;98832.31;4774650;29;109639;-72
2023/01/11 03:57:41;;;;;;;;;12.00;10.00;;;;;3.38;98.43;98838.78;4782173;29;102114;-72
2023/01/11 04:00:09;;;;;;;;;11.00;11.00;;;;;3.37;99.04;98829.09;4763481;29;102001;-72
2023/01/11 04:02:39;;;;;;;;;7.00;7.00;;;;;3.34;99.15;98828.53;4772446;29;102367;-72
2023/01/11 04:05:09;;;;;;;;;14.75;10.75;;;;;3.21;98.74;98820.88;4772722;29;104765;-72
2023/01/11 04:07:36;;;;;;;;;11.25;11.00;;;;;3.27;99.52;98833.66;4774735;29;102070;-72
2023/01/11 04:10:04;;;;;;;;;14.75;13.50;;;;;3.31;98.90;98835.03;4781244;29;102234;-72
2023/01/11 04:12:31;;;;;;;;;10.50;9.25;;;;;3.26;98.75;98842.66;4778173;29;102315;-72
2023/01/11 04:14:58;;;;;;;;;41.25;37.00;;;;;3.12;100.00;98835.97;4781359;29;107700;-72
2023/01/11 04:17:24;;;;;;;;;54.33;42.67;;;;;3.07;100.00;98830.22;4788330;29;102596;-72
2023/01/11 04:19:51;;;;;;;;;34.75;28.50;;;;;3.15;100.00;98834.84;4766528;29;102590;-72
2023/01/11 04:22:18;;;;;;;;;27.50;24.50;;;;;3.21;100.00;98828.88;4762803;29;102887;-72
2023/01/11 04:24:45;;;;;;;;;23.25;17.75;;;;;3.20;100.00;98821.84;4767524;29;104069;-72
2023/01/11 04:27:12;;;;;;;;;25.50;18.75;;;;;3.18;100.00;98828.34;4787809;29;102211;-71
2023/01/11 04:29:39;;;;;;;;;33.75;27.50;;;;;3.13;100.00;98832.31;4764158;29;102292;-72
2023/01/11 04:32:06;;;;;;;;;29.00;25.00;;;;;3.18;100.00;98831.03;4768320;29;102606;-71
2023/01/11 04:34:33;;;;;;;;;21.50;18.50;;;;;3.23;100.00;98832.28;4773644;29;104524;-72
2023/01/11 04:37:00;;;;;;;;;18.00;18.00;;;;;3.25;100.00;98819.59;4781484;29;102386;-72
2023/01/11 04:39:27;;;;;;;;;10.00;10.00;;;;;3.28;100.00;98835.34;4775784;29;102160;-72
2023/01/11 04:44:39;;;;;;;;;9.25;7.50;;;;;3.25;100.00;98827.59;4765974;29;108836;-72
2023/01/11 04:47:06;;;;;;;;;15.50;14.50;;;;;3.20;99.12;98819.19;4769606;29;103953;-73
2023/01/11 04:49:33;;;;;;;;;32.50;23.50;;;;;3.15;100.00;98814.28;4778782;29;102095;-71
2023/01/11 04:52:00;;;;;;;;;33.00;27.50;;;;;3.16;100.00;98817.81;4795657;29;102216;-72
2023/01/11 04:54:27;;;;;;;;;26.25;24.75;;;;;3.17;99.93;98819.50;4767048;29;108861;-72
2023/01/11 04:56:54;;;;;;;;;12.50;6.50;;;;;3.18;100.00;98818.50;4761782;29;102377;-72
2023/01/11 04:59:21;;;;;;;;;20.50;15.75;;;;;3.23;100.00;98821.59;4762227;29;102291;-72
2023/01/11 05:01:48;;;;;;;;;10.50;10.50;;;;;3.22;100.00;98811.03;4763279;29;102301;-72
2023/01/11 05:04:15;;;;;;;;;10.50;10.50;;;;;3.23;99.92;98805.56;4776508;29;103553;-72
2023/01/11 05:06:42;;;;;;;;;5.50;4.00;;;;;3.24;99.45;98798.38;4787066;29;109578;-72
2023/01/11 05:09:14;;;;;;;;;10.00;7.25;;;;;3.20;99.92;98794.31;4773295;29;102135;-72
2023/01/11 05:11:41;;;;;;;;;11.00;10.50;;;;;3.23;99.78;98800.22;4776716;29;102200;-72
2023/01/11 05:14:08;;;;;;;;;11.25;10.75;;;;;3.23;99.64;98792.19;4782585;29;103667;-72
2023/01/11 05:16:36;;;;;;;;;6.00;5.25;;;;;3.06;99.07;98774.31;4781524;29;102509;-72
2023/01/11 05:19:05;;;;;;;;;6.00;5.50;;;;;3.22;99.60;98801.19;4768983;29;102087;-71
2023/01/11 05:21:34;;;;;;;;;9.00;7.25;;;;;3.18;99.13;98797.13;4786986;29;103283;-72
2023/01/11 05:24:04;;;;;;;;;11.75;10.00;;;;;3.21;99.65;98799.50;4771075;29;108673;-72
2023/01/11 05:26:34;;;;;;;;;9.75;6.75;;;;;3.23;98.76;98796.69;4776501;29;102145;-72
2023/01/11 05:29:04;;;;;;;;;4.25;2.50;;;;;3.23;99.48;98794.03;4778068;29;102277;-72
2023/01/11 05:31:32;;;;;;;;;10.25;10.00;;;;;3.22;98.94;98793.19;4776157;29;102507;-72
2023/01/11 05:33:59;;;;;;;;;11.25;9.00;;;;;3.23;99.53;98792.19;4768104;29;108614;-72
2023/01/11 05:36:27;;;;;;;;;13.75;11.00;;;;;3.21;99.25;98796.81;4778372;29;104586;-72
2023/01/11 05:38:56;;;;;;;;;8.50;7.00;;;;;3.21;99.22;98794.16;4775326;29;102331;-72
2023/01/11 05:41:25;;;;;;;;;8.00;8.00;;;;;3.13;99.52;98783.38;4781653;29;102517;-72
2023/01/11 05:46:41;;;;;;;;;7.00;6.00;;;;;3.23;99.00;98786.84;4777205;29;102235;-73
2023/01/11 05:49:10;;;;;;;;;7.00;6.00;;;;;3.22;100.00;98792.31;4778839;29;102438;-72
2023/01/11 05:51:37;;;;;;;;;7.50;6.25;;;;;3.24;99.72;98790.38;4778373;29;102329;-72
2023/01/11 05:54:06;;;;;;;;;12.25;11.00;;;;;3.22;100.00;98769.13;4780706;29;104014;-72
2023/01/11 05:56:33;;;;;;;;;11.75;11.75;;;;;3.25;99.63;98776.84;4772366;29;102373;-72
2023/01/11 05:59:01;;;;;;;;;10.75;8.00;;;;;3.27;100.00;98779.38;4784951;29;102222;-72
2023/01/11 06:01:28;;;;;;;;;10.25;8.00;;;;;3.24;99.51;98772.50;4771674;29;102504;-72
2023/01/11 06:03:55;;;;;;;;;15.75;12.00;;;;;3.15;99.61;98758.19;4780475;29;103710;-72
2023/01/11 06:06:22;;;;;;;;;10.50;7.75;;;;;3.18;99.82;98773.09;4788751;29;102398;-72
2023/01/11 06:08:49;;;;;;;;;9.50;6.75;;;;;3.13;99.63;98772.69;4779721;29;104160;-71
2023/01/11 06:11:16;;;;;;;;;14.75;9.50;;;;;3.05;99.28;98772.63;4776821;29;102284;-72
2023/01/11 06:13:43;;;;;;;;;12.75;10.00;;;;;3.00;99.71;98773.06;4774453;29;103991;-72
2023/01/11 06:16:15;;;;;;;;;10.25;10.00;;;;;2.92;100.00;98772.13;4775023;29;102303;-72
2023/01/11 06:18:47;;;;;;;;;15.75;12.50;;;;;2.89;99.81;98780.41;4768143;29;102134;-72
2023/01/11 06:21:16;;;;;;;;;10.25;8.50;;;;;2.88;99.96;98773.41;4789635;29;102903;-72
2023/01/11 06:23:45;;;;;;;;;10.50;6.25;;;;;2.87;100.00;98775.25;4787833;29;103787;-72
2023/01/11 06:26:15;;;;;;;;;10.50;5.25;;;;;2.84;99.81;98778.19;4783681;29;102181;-72
2023/01/11 06:28:42;;;;;;;;;10.00;8.25;;;;;2.79;100.00;98779.66;4781779;29;102425;-72
2023/01/11 06:31:10;;;;;;;;;13.50;10.25;;;;;2.75;100.00;98783.59;4775713;29;102141;-72
2023/01/11 06:33:37;;;;;;;;;12.25;10.25;;;;;2.71;100.00;98772.34;4780651;29;106542;-72
2023/01/11 06:36:09;;;;;;;;;14.50;12.00;;;;;2.71;100.00;98772.34;4776065;29;102237;-72
2023/01/11 06:38:37;;;;;;;;;12.25;11.00;;;;;2.70;100.00;98779.50;4784070;29;101893;-72
2023/01/11 06:41:07;;;;;;;;;14.50;11.25;;;;;2.68;100.00;98784.19;4784511;29;102377;-73
2023/01/11 06:43:36;;;;;;;;;22.25;19.50;;;;;2.60;100.00;98778.75;4778156;29;104498;-72
2023/01/11 06:46:04;;;;;;;;;25.50;23.00;;;;;2.57;100.00;98772.81;4783035;29;102852;-71
2023/01/11 06:48:31;;;;;;;;;18.75;16.00;;;;;2.59;100.00;98779.72;4791574;29;102360;-72
2023/01/11 06:50:58;;;;;;;;;21.25;15.00;;;;;2.59;100.00;98779.72;4779498;29;102042;-72
2023/01/11 06:53:27;;;;;;;;;16.50;15.50;;;;;2.54;100.00;98773.97;4782102;29;104031;-72
2023/01/11 06:55:56;;;;;;;;;18.00;13.50;;;;;2.53;100.00;98774.09;4778635;29;101980;-73
2023/01/11 06:58:24;;;;;;;;;15.25;11.25;;;;;2.60;100.00;98785.91;4773523;29;102100;-72
2023/01/11 07:00:54;;;;;;;;;15.00;11.75;;;;;2.53;100.00;98761.63;4777708;29;102206;-72
2023/01/11 07:03:23;;;;;;;;;9.75;5.50;;;;;2.62;100.00;98786.59;4780717;29;104219;-72
2023/01/11 07:05:55;;;;;;;;;20.50;15.75;;;;;2.49;100.00;98762.91;4773806;29;101997;-72
2023/01/11 07:08:24;;;;;;;;;21.75;14.00;;;;;2.63;100.00;98780.25;4795220;29;102691;-72
2023/01/11 07:10:51;;;;;;;;;11.00;8.00;;;;;2.71;100.00;98777.69;4781225;29;102412;-72
2023/01/11 07:13:18;;;;;;;;;21.50;14.50;;;;;2.68;100.00;98778.00;4778695;29;104234;-71
2023/01/11 07:15:49;;;;;;;;;23.00;18.50;;;;;2.67;100.00;98777.16;4775869;29;103445;-72
2023/01/11 07:18:17;;;;;;;;;21.50;18.50;;;;;2.61;100.00;98772.38;4773131;29;102134;-72
2023/01/11 07:20:45;;;;;;;;;15.50;14.25;;;;;2.58;100.00;98774.53;4785113;29;102050;-72
2023/01/11 07:23:12;;;;;;;;;21.50;18.25;;;;;2.55;100.00;98773.00;4777706;29;104022;-72
2023/01/11 07:25:40;;;;;;;;;13.00;9.25;;;;;2.64;100.00;98774.78;4789099;29;102223;-73
2023/01/11 07:28:07;;;;;;;;;10.00;7.25;;;;;2.61;100.00;98756.38;4783345;29;102254;-72
2023/01/11 07:30:37;;;;;;;;;8.75;7.25;;;;;2.72;100.00;98759.84;4779397;29;102067;-72
2023/01/11 07:33:24;;;;;;;;;12.25;11.50;;;;;2.52;100.00;98730.56;4787498;29;103842;-72
2023/01/11 07:35:52;;;;;;;;;11.50;11.50;;;;;2.75;100.00;98754.22;4772674;29;102287;-72
2023/01/11 07:38:19;;;;;;;;;14.50;11.00;;;;;2.70;100.00;98749.34;4778696;29;102524;-72
2023/01/11 07:40:46;;;;;;;;;10.50;9.50;;;;;2.80;100.00;98755.44;4773487;29;102344;-72
2023/01/11 07:43:14;;;;;;;;;11.75;10.75;;;;;2.88;100.00;98746.72;4767533;29;104025;-72
2023/01/11 07:45:49;;;;;;;;;17.75;13.50;;;;;2.82;100.00;98740.13;4779077;29;102383;-73
2023/01/11 07:48:23;;;;;;;;;11.00;10.00;;;;;2.93;100.00;98747.06;4777520;29;102003;-73
2023/01/11 07:50:51;;;;;;;;;14.50;11.75;;;;;2.71;100.00;98724.31;4767079;29;101963;-73
2023/01/11 07:53:18;;;;;;;;;21.50;19.25;;;;;2.78;100.00;98743.25;4768505;29;103975;-72
2023/01/11 07:55:46;;;;;;;;;14.75;12.75;;;;;2.64;100.00;98741.91;4747290;29;102441;-73
2023/01/11 07:58:14;;;;;;;;;9.75;8.25;;;;;2.54;100.00;98733.09;4765063;29;102061;-72
2023/01/11 08:00:41;;;;;;;;;9.75;7.50;;;;;2.48;100.00;98718.50;4767853;29;102082;-72
2023/01/11 08:03:09;;;;;;;;;8.50;6.75;;;;;2.65;100.00;98743.59;4763397;29;103008;-72
2023/01/11 08:05:37;;;;;;;;;12.00;11.50;;;;;2.67;100.00;98739.78;4768274;29;102418;-72
2023/01/11 08:08:05;;;;;;;;;7.00;6.50;;;;;2.54;99.97;98711.75;4761885;29;102427;-72
2023/01/11 08:10:32;;;;;;;;;9.25;7.00;;;;;2.66;99.06;98738.09;4760036;29;102245;-73
2023/01/11 08:15:45;;;;;;;;;17.75;15.25;;;;;2.62;99.99;98743.88;4765472;29;102006;-72
2023/01/11 08:18:13;;;;;;;;;13.25;10.50;;;;;2.66;100.00;98747.94;4760519;29;102300;-72
2023/01/11 08:20:40;;;;;;;;;12.00;11.00;;;;;2.66;99.97;98743.44;4769669;29;102415;-73
2023/01/11 08:23:09;;;;;;;;;11.50;9.00;;;;;2.68;100.00;98741.47;4764715;29;103653;-72
2023/01/11 08:25:36;;;;;;;;;15.00;13.00;;;;;2.64;100.00;98739.25;4753573;29;102633;-72
2023/01/11 08:28:05;;;;;;;;;21.25;15.75;;;;;2.62;100.00;98742.03;4745023;29;102111;-71
2023/01/11 08:30:32;;;;;;;;;22.75;21.50;;;;;2.45;100.00;98726.81;4782534;29;103249;-72
2023/01/11 08:33:00;;;;;;;;;20.00;17.75;;;;;2.49;100.00;98725.53;4758675;29;108760;-73
2023/01/11 08:35:29;;;;;;;;;19.75;14.00;;;;;2.58;100.00;98737.16;4782215;29;102988;-72
2023/01/11 08:37:57;;;;;;;;;15.25;14.75;;;;;2.35;100.00;98707.34;4766539;29;102078;-72
2023/01/11 08:40:27;;;;;;;;;26.25;22.50;;;;;2.62;100.00;98738.53;4777110;29;102327;-72
2023/01/11 08:42:57;;;;;;;;;18.50;17.00;;;;;2.67;100.00;98739.78;4791969;29;104185;-72
2023/01/11 08:45:24;;;;;;;;;16.75;15.75;;;;;2.74;100.00;98731.19;4793451;29;102477;-72
2023/01/11 08:47:52;;;;;;;;;19.50;16.25;;;;;2.66;100.00;98713.22;4779783;29;102334;-72
2023/01/11 08:50:19;;;;;;;;;11.50;11.00;;;;;2.86;100.00;98724.66;4774052;29;102476;-73
2023/01/11 08:52:49;;;;;;;;;14.75;13.25;;;;;2.89;100.00;98730.53;4784571;29;103596;-72
2023/01/11 08:55:18;;;;;;;;;17.75;12.50;;;;;2.95;100.00;98742.44;4783821;29;102421;-72
2023/01/11 08:57:45;;;;;;;;;20.50;14.25;;;;;2.96;100.00;98736.13;4773450;29;102267;-72
2023/01/11 09:00:13;;;;;;;;;10.25;10.25;;;;;3.07;100.00;98739.41;4780428;29;102293;-73
2023/01/11 09:02:41;;;;;;;;;9.50;8.50;;;;;3.15;100.00;98736.00;4778237;29;103994;-72
2023/01/11 09:05:08;;;;;;;;;15.00;11.00;;;;;3.19;100.00;98740.06;4777713;29;102357;-72
2023/01/11 09:07:35;;;;;;;;;14.75;11.25;;;;;3.08;100.00;98706.38;4772127;29;102366;-71
2023/01/11 09:10:02;;;;;;;;;9.50;7.00;;;;;3.34;100.00;98743.84;4778092;29;101883;-73
2023/01/11 09:12:31;;;;;;;;;14.50;11.00;;;;;3.32;99.41;98735.19;4781595;29;104025;-72
2023/01/11 09:14:58;;;;;;;;;15.00;13.25;;;;;3.37;99.39;98732.88;4772653;29;102168;-73
2023/01/11 09:17:25;;;;;;;;;10.00;7.00;;;;;3.38;99.43;98731.88;4773057;29;102167;-71
2023/01/11 09:19:52;;;;;;;;;18.75;16.75;;;;;3.29;98.75;98735.47;4766661;29;102198;-72
2023/01/11 09:22:20;;;;;;;;;24.50;16.50;;;;;3.25;98.79;98736.75;4784742;29;103367;-72
2023/01/11 09:24:46;;;;;;;;;19.25;13.50;;;;;3.28;99.28;98733.81;4778993;29;103397;-72
2023/01/11 09:27:14;;;;;;;;;16.25;14.75;;;;;3.35;99.84;98734.00;4767870;29;102112;-72
2023/01/11 09:29:41;;;;;;;;;14.25;11.75;;;;;3.31;98.96;98728.13;4782745;29;102211;-73
2023/01/11 09:32:08;;;;;;;;;23.75;15.50;;;;;3.33;99.38;98720.78;4773568;29;104218;-72
2023/01/11 09:34:35;;;;;;;;;17.25;14.25;;;;;3.39;98.61;98722.88;4773282;29;104164;-71
2023/01/11 09:37:05;;;;;;;;;15.50;11.75;;;;;3.53;99.18;98714.31;4778403;29;102373;-72
2023/01/11 09:39:33;;;;;;;;;12.00;11.75;;;;;3.53;99.78;98700.94;4776691;29;102077;-72
2023/01/11 09:42:25;;;;;;;;;19.25;16.50;;;;;3.65;98.89;98706.06;4774675;29;103999;-73
2023/01/11 09:44:56;;;;;;;;;16.00;14.50;;;;;3.81;98.91;98714.19;4782961;29;102234;-72
2023/01/11 09:47:45;;;;;;;;;13.50;8.00;;;;;3.93;98.03;98718.28;4777883;29;103735;-72
2023/01/11 09:50:27;;;;;;;;;7.00;6.50;;;;;3.95;97.65;98735.03;4784554;29;102562;-72
2023/01/11 09:52:58;;;;;;;;;14.00;13.25;;;;;3.93;97.70;98702.25;4770580;29;104006;-72
2023/01/11 09:55:33;;;;;;;;;11.25;10.75;;;;;3.99;96.97;98709.66;4780371;29;102227;-72
2023/01/11 09:58:35;;;;;;;;;10.00;8.50;;;;;3.96;96.30;98704.63;4776332;29;102017;-72
2023/01/11 10:01:11;;;;;;;;;13.75;11.75;;;;;4.05;96.19;98701.00;4784604;29;102592;-72
2023/01/11 10:03:53;;;;;;;;;11.00;8.50;;;;;4.10;96.54;98697.88;4777464;29;110107;-73
2023/01/11 10:07:13;;;;;;;;;27.50;23.25;;;;;3.98;96.20;98703.47;4777979;29;102662;-72
2023/01/11 10:09:55;;;;;;;;;16.00;14.25;;;;;4.07;96.28;98692.81;4748033;29;102052;-72
2023/01/11 10:12:56;;;;;;;;;21.00;16.00;;;;;4.04;96.49;98699.31;4774454;29;102396;-71
2023/01/11 10:15:49;;;;;;;;;22.00;18.50;;;;;4.01;96.87;98694.28;4778723;29;109384;-72
2023/01/11 10:18:51;;;;;;;;;15.50;13.50;;;;;4.09;96.88;98685.47;4775026;29;102950;-72
2023/01/11 10:21:52;;;;;;;;;17.25;14.50;;;;;4.31;97.27;98679.56;4782860;29;102102;-72
2023/01/11 10:24:28;;;;;;;;;13.00;12.00;;;;;4.55;96.96;98665.47;4789745;29;102207;-72
2023/01/11 10:26:58;;;;;;;;;12.00;10.75;;;;;4.78;96.64;98653.97;4779206;29;103982;-72
2023/01/11 10:32:48;;;;;;;;;17.00;15.00;;;;;5.03;91.05;98665.59;4781773;29;102240;-71
2023/01/11 10:41:58;;;;;;;;;12.50;8.00;;;;;5.04;90.53;98635.13;4782287;29;108491;-72
2023/01/11 10:44:48;;;;;;;;;7.25;6.25;;;;;5.07;91.82;98631.28;4763195;29;102400;-72
2023/01/11 10:47:20;;;;;;;;;3.00;3.00;;;;;5.12;91.99;98626.25;4785780;29;102673;-71
2023/01/11 10:49:55;;;;;;;;;7.00;4.00;;;;;5.12;91.36;98615.53;4785031;29;104261;-71
2023/01/11 10:52:50;;;;;;;;;13.00;10.00;;;;;5.19;92.00;98622.75;4763440;29;102631;-71
2023/01/11 10:55:26;;;;;;;;;8.25;5.00;;;;;5.27;92.40;98617.38;4781904;29;102463;-72
2023/01/11 10:58:44;;;;;;;;;10.00;7.00;;;;;5.21;91.50;98587.75;4790502;29;102388;-71
2023/01/11 11:01:31;;;;;;;;;7.00;6.25;;;;;5.36;90.83;98619.06;4754983;29;108707;-72
2023/01/11 11:04:20;;;;;;;;;6.75;3.75;;;;;5.45;90.22;98625.25;4782255;29;102154;-71
2023/01/11 11:07:06;;;;;;;;;5.00;3.75;;;;;5.53;88.43;98619.06;4785217;29;102381;-72
2023/01/11 11:09:39;;;;;;;;;5.50;4.25;;;;;5.62;88.36;98618.91;4793558;29;102067;-71
2023/01/11 11:12:19;;;;;;;;;23.00;21.00;;;;;5.42;87.83;98614.03;4782189;29;108684;-71
2023/01/11 11:14:56;;;;;;;;;28.25;24.25;;;;;5.39;86.83;98612.53;4780463;29;102184;-71
2023/01/11 11:17:24;;;;;;;;;24.00;18.75;;;;;5.45;88.49;98603.00;4785213;29;102756;-71
2023/01/11 11:19:52;;;;;;;;;15.50;13.75;;;;;5.54;87.91;98600.09;4788366;29;102132;-71
2023/01/11 11:22:19;;;;;;;;;13.50;12.00;;;;;5.48;87.58;98583.88;4781934;29;103982;-71
2023/01/11 11:24:59;;;;;;;;;17.00;13.00;;;;;5.62;85.51;98596.59;4785819;29;102381;-71
2023/01/11 11:27:49;;;;;;;;;16.75;12.25;;;;;5.53;86.12;98598.44;4781578;29;102301;-71
2023/01/11 11:30:27;;;;;;;;;16.00;13.50;;;;;5.60;87.03;98590.56;4782835;29;102458;-71
2023/01/11 11:33:01;;;;;;;;;20.25;14.00;;;;;5.60;86.27;98586.03;4787513;29;104046;-71
2023/01/11 11:35:40;;;;;;;;;10.50;6.50;;;;;5.57;87.54;98581.00;4782284;29;104801;-71
2023/01/11 11:38:21;;;;;;;;;16.25;16.25;;;;;5.49;87.27;98580.19;4779326;29;102193;-71
2023/01/11 11:41:18;;;;;;;;;16.25;14.75;;;;;5.54;86.83;98583.19;4776347;29;102275;-71
2023/01/11 11:43:46;;;;;;;;;17.50;17.25;;;;;5.64;88.28;98583.84;4782536;29;109007;-71
2023/01/11 11:46:13;;;;;;;;;18.25;12.25;;;;;5.72;86.46;98581.97;4789717;29;102169;-70
2023/01/11 11:49:14;;;;;;;;;25.75;20.00;;;;;5.64;86.28;98589.19;4783748;29;102198;-71
2023/01/11 11:51:44;;;;;;;;;26.75;21.75;;;;;5.65;85.95;98585.50;4782884;29;102256;-70
2023/01/11 11:54:25;;;;;;;;;22.50;18.75;;;;;5.71;85.21;98584.84;4793175;29;105688;-70
2023/01/11 11:56:54;;;;;;;;;24.75;19.00;;;;;5.64;83.86;98590.03;4784016;29;102519;-71
2023/01/11 11:59:24;;;;;;;;;22.50;21.00;;;;;5.62;82.92;98580.50;4785277;29;102436;-72
2023/01/11 12:02:02;;;;;;;;;18.25;17.50;;;;;5.62;84.53;98581.34;4781810;29;102545;-71
2023/01/11 12:04:50;;;;;;;;;25.50;20.00;;;;;5.47;84.89;98571.47;4786201;29;103744;-70
2023/01/11 12:07:35;;;;;;;;;20.50;17.25;;;;;5.42;85.11;98561.25;4783583;29;102468;-71
2023/01/11 12:10:23;;;;;;;;;18.50;16.50;;;;;5.36;84.47;98568.13;4781356;29;102225;-70
2023/01/11 12:12:59;;;;;;;;;18.75;17.25;;;;;5.28;85.52;98564.59;4783236;29;102357;-71
2023/01/11 12:15:30;;;;;;;;;21.75;19.75;;;;;5.22;85.02;98558.06;4778409;29;103696;-70
2023/01/11 12:18:24;;;;;;;;;21.50;21.00;;;;;5.21;86.18;98547.53;4783544;29;102153;-70